Terminal Aerodrome Forecast
Issued by NWS

Home | Current Version | Previous Version | Text Only | Print | Product List | Glossary On
Versions: 1 2 3 4 5 6 7 8 9 10 11 12 13 14
000
FTUS44 KCRP 301700
TAFLRD
TAF
KLRD 301739Z 3018/0118 15008KT P6SM SCT035 BKN250
     FM010800 12005KT 5SM BR FEW015 SCT250
      TEMPO 0110/0112 2SM BR BKN005
     FM011600 14010KT P6SM SCT025=

USA.gov is the U.S. government's official web portal to all federal, state and local government web resources and services.